Terminal Aerodrome Forecast
Issued by NWS Lake Charles, LA

Home | Current Version | Previous Version | Text Only | Print | Product List | Glossary On
Versions: 1 2 3 4 5 6 7 8 9 10 11 12 13 14
000
FTUS44 KLCH 171700
TAFBPT
TAF
KBPT 171730Z 1718/1818 VRB04KT P6SM VCTS SCT025CB BKN070
      TEMPO 1718/1722 2SM TSRA BKN025CB
     FM180000 20004KT P6SM OVC100
     FM181200 VRB03KT P6SM SCT015
     FM181500 VRB05KT P6SM VCSH SCT025=

USA.gov is the U.S. government's official web portal to all federal, state and local government web resources and services.